sensor_id;sensor_type;location;lat;lon;timestamp;P1;durP1;ratioP1;P2;durP2;ratioP2
8895;SDS011;4484;48.928;10.066;2023-01-25T00:00:00;24.07;;;14.20;;
8895;SDS011;4484;48.928;10.066;2023-01-25T00:02:30;24.87;;;13.17;;
8895;SDS011;4484;48.928;10.066;2023-01-25T00:04:56;26.60;;;14.43;;
8895;SDS011;4484;48.928;10.066;2023-01-25T00:07:23;26.67;;;14.63;;
8895;SDS011;4484;48.928;10.066;2023-01-25T00:09:50;20.83;;;12.23;;
8895;SDS011;4484;48.928;10.066;2023-01-25T00:12:17;28.17;;;14.27;;
8895;SDS011;4484;48.928;10.066;2023-01-25T00:14:44;28.77;;;14.57;;
8895;SDS011;4484;48.928;10.066;2023-01-25T00:17:11;22.40;;;12.63;;
8895;SDS011;4484;48.928;10.066;2023-01-25T00:19:37;25.73;;;14.37;;
8895;SDS011;4484;48.928;10.066;2023-01-25T00:22:04;27.43;;;13.50;;
8895;SDS011;4484;48.928;10.066;2023-01-25T00:24:31;26.67;;;14.40;;
8895;SDS011;4484;48.928;10.066;2023-01-25T00:26:58;26.67;;;15.23;;
8895;SDS011;4484;48.928;10.066;2023-01-25T00:29:25;28.33;;;14.07;;
8895;SDS011;4484;48.928;10.066;2023-01-25T00:32:53;26.07;;;13.83;;
8895;SDS011;4484;48.928;10.066;2023-01-25T00:34:48;25.80;;;14.20;;
8895;SDS011;4484;48.928;10.066;2023-01-25T00:39:43;26.17;;;13.87;;
8895;SDS011;4484;48.928;10.066;2023-01-25T00:42:10;25.27;;;13.87;;
8895;SDS011;4484;48.928;10.066;2023-01-25T00:44:38;27.27;;;14.03;;
8895;SDS011;4484;48.928;10.066;2023-01-25T00:47:08;27.37;;;14.50;;
8895;SDS011;4484;48.928;10.066;2023-01-25T00:49:39;21.80;;;13.13;;
8895;SDS011;4484;48.928;10.066;2023-01-25T00:52:07;24.80;;;13.23;;
8895;SDS011;4484;48.928;10.066;2023-01-25T00:54:35;24.07;;;13.13;;
8895;SDS011;4484;48.928;10.066;2023-01-25T00:57:02;25.10;;;13.33;;
8895;SDS011;4484;48.928;10.066;2023-01-25T00:59:29;23.60;;;12.60;;
8895;SDS011;4484;48.928;10.066;2023-01-25T01:01:55;24.90;;;12.70;;
8895;SDS011;4484;48.928;10.066;2023-01-25T01:04:22;23.03;;;13.23;;
8895;SDS011;4484;48.928;10.066;2023-01-25T01:06:51;27.37;;;14.43;;
8895;SDS011;4484;48.928;10.066;2023-01-25T01:09:19;27.03;;;13.03;;
8895;SDS011;4484;48.928;10.066;2023-01-25T01:11:50;27.57;;;12.77;;
8895;SDS011;4484;48.928;10.066;2023-01-25T01:14:17;27.37;;;14.03;;
8895;SDS011;4484;48.928;10.066;2023-01-25T01:16:44;23.50;;;12.33;;
8895;SDS011;4484;48.928;10.066;2023-01-25T01:19:11;23.33;;;12.07;;
8895;SDS011;4484;48.928;10.066;2023-01-25T01:21:39;21.40;;;11.13;;
8895;SDS011;4484;48.928;10.066;2023-01-25T01:24:06;25.37;;;12.67;;
8895;SDS011;4484;48.928;10.066;2023-01-25T01:26:35;19.03;;;11.53;;
8895;SDS011;4484;48.928;10.066;2023-01-25T01:29:02;20.33;;;11.20;;
8895;SDS011;4484;48.928;10.066;2023-01-25T01:31:29;22.30;;;11.33;;
8895;SDS011;4484;48.928;10.066;2023-01-25T01:34:09;22.03;;;12.03;;
8895;SDS011;4484;48.928;10.066;2023-01-25T01:36:39;24.43;;;12.07;;
8895;SDS011;4484;48.928;10.066;2023-01-25T01:39:06;23.20;;;11.03;;
8895;SDS011;4484;48.928;10.066;2023-01-25T01:41:34;23.57;;;11.20;;
8895;SDS011;4484;48.928;10.066;2023-01-25T01:44:01;20.40;;;11.57;;
8895;SDS011;4484;48.928;10.066;2023-01-25T01:49:00;20.30;;;10.87;;
8895;SDS011;4484;48.928;10.066;2023-01-25T01:51:41;20.60;;;10.73;;
8895;SDS011;4484;48.928;10.066;2023-01-25T01:56:56;19.37;;;10.53;;
8895;SDS011;4484;48.928;10.066;2023-01-25T01:59:45;19.83;;;10.50;;
8895;SDS011;4484;48.928;10.066;2023-01-25T02:02:15;18.90;;;9.30;;
8895;SDS011;4484;48.928;10.066;2023-01-25T02:04:42;19.20;;;10.47;;
8895;SDS011;4484;48.928;10.066;2023-01-25T02:07:14;17.70;;;10.23;;
8895;SDS011;4484;48.928;10.066;2023-01-25T02:09:45;20.63;;;10.63;;
8895;SDS011;4484;48.928;10.066;2023-01-25T02:12:15;20.30;;;11.03;;
8895;SDS011;4484;48.928;10.066;2023-01-25T02:14:44;20.20;;;11.63;;
8895;SDS011;4484;48.928;10.066;2023-01-25T02:17:35;18.73;;;10.17;;
8895;SDS011;4484;48.928;10.066;2023-01-25T02:22:37;17.70;;;10.47;;
8895;SDS011;4484;48.928;10.066;2023-01-25T02:25:12;17.30;;;9.77;;
8895;SDS011;4484;48.928;10.066;2023-01-25T02:27:46;20.47;;;10.33;;
8895;SDS011;4484;48.928;10.066;2023-01-25T02:30:20;19.27;;;9.93;;
8895;SDS011;4484;48.928;10.066;2023-01-25T02:32:49;20.80;;;9.27;;
8895;SDS011;4484;48.928;10.066;2023-01-25T02:35:20;21.23;;;10.90;;
8895;SDS011;4484;48.928;10.066;2023-01-25T02:37:49;19.40;;;10.33;;
8895;SDS011;4484;48.928;10.066;2023-01-25T02:40:17;17.67;;;9.60;;
8895;SDS011;4484;48.928;10.066;2023-01-25T02:42:45;19.43;;;10.00;;
8895;SDS011;4484;48.928;10.066;2023-01-25T02:45:14;19.73;;;9.97;;
8895;SDS011;4484;48.928;10.066;2023-01-25T02:47:44;20.90;;;10.43;;
8895;SDS011;4484;48.928;10.066;2023-01-25T02:50:10;19.80;;;10.03;;
8895;SDS011;4484;48.928;10.066;2023-01-25T02:52:40;17.37;;;9.57;;
8895;SDS011;4484;48.928;10.066;2023-01-25T02:55:07;17.70;;;9.77;;
8895;SDS011;4484;48.928;10.066;2023-01-25T02:57:37;16.37;;;9.37;;
8895;SDS011;4484;48.928;10.066;2023-01-25T03:00:04;16.07;;;8.93;;
8895;SDS011;4484;48.928;10.066;2023-01-25T03:02:32;16.57;;;8.90;;
8895;SDS011;4484;48.928;10.066;2023-01-25T03:04:59;15.47;;;9.03;;
8895;SDS011;4484;48.928;10.066;2023-01-25T03:07:26;16.13;;;8.23;;
8895;SDS011;4484;48.928;10.066;2023-01-25T03:09:53;17.17;;;8.53;;
8895;SDS011;4484;48.928;10.066;2023-01-25T03:12:20;16.87;;;8.70;;
8895;SDS011;4484;48.928;10.066;2023-01-25T03:14:47;14.60;;;8.53;;
8895;SDS011;4484;48.928;10.066;2023-01-25T03:17:16;15.87;;;7.93;;
8895;SDS011;4484;48.928;10.066;2023-01-25T03:19:44;16.77;;;9.53;;
8895;SDS011;4484;48.928;10.066;2023-01-25T03:22:11;16.23;;;8.80;;
8895;SDS011;4484;48.928;10.066;2023-01-25T03:24:38;15.53;;;8.40;;
8895;SDS011;4484;48.928;10.066;2023-01-25T03:27:05;14.80;;;8.30;;
8895;SDS011;4484;48.928;10.066;2023-01-25T03:29:49;16.73;;;8.87;;
8895;SDS011;4484;48.928;10.066;2023-01-25T03:32:20;14.80;;;8.47;;
8895;SDS011;4484;48.928;10.066;2023-01-25T03:34:47;18.77;;;8.13;;
8895;SDS011;4484;48.928;10.066;2023-01-25T03:37:16;13.87;;;8.23;;
8895;SDS011;4484;48.928;10.066;2023-01-25T03:39:43;17.70;;;8.47;;
8895;SDS011;4484;48.928;10.066;2023-01-25T03:42:10;14.07;;;8.17;;
8895;SDS011;4484;48.928;10.066;2023-01-25T03:44:37;14.80;;;7.60;;
8895;SDS011;4484;48.928;10.066;2023-01-25T03:47:04;14.53;;;8.80;;
8895;SDS011;4484;48.928;10.066;2023-01-25T03:49:31;14.80;;;7.23;;
8895;SDS011;4484;48.928;10.066;2023-01-25T03:51:59;13.03;;;7.97;;
8895;SDS011;4484;48.928;10.066;2023-01-25T03:54:38;15.17;;;7.83;;
8895;SDS011;4484;48.928;10.066;2023-01-25T03:57:07;9.50;;;6.33;;
8895;SDS011;4484;48.928;10.066;2023-01-25T03:59:44;10.67;;;6.50;;
8895;SDS011;4484;48.928;10.066;2023-01-25T04:02:11;11.70;;;7.53;;
8895;SDS011;4484;48.928;10.066;2023-01-25T04:04:40;14.00;;;7.13;;
8895;SDS011;4484;48.928;10.066;2023-01-25T04:07:07;10.77;;;6.43;;
8895;SDS011;4484;48.928;10.066;2023-01-25T04:09:37;10.07;;;6.40;;
8895;SDS011;4484;48.928;10.066;2023-01-25T04:12:05;9.63;;;6.07;;
8895;SDS011;4484;48.928;10.066;2023-01-25T04:14:33;10.20;;;5.80;;
8895;SDS011;4484;48.928;10.066;2023-01-25T04:17:14;8.93;;;6.00;;
8895;SDS011;4484;48.928;10.066;2023-01-25T04:20:01;9.87;;;5.97;;
8895;SDS011;4484;48.928;10.066;2023-01-25T04:22:34;10.83;;;6.83;;
8895;SDS011;4484;48.928;10.066;2023-01-25T04:25:03;12.83;;;7.33;;
8895;SDS011;4484;48.928;10.066;2023-01-25T04:27:30;10.87;;;7.03;;
8895;SDS011;4484;48.928;10.066;2023-01-25T04:30:03;10.27;;;6.83;;
8895;SDS011;4484;48.928;10.066;2023-01-25T04:32:34;11.10;;;7.13;;
8895;SDS011;4484;48.928;10.066;2023-01-25T04:35:06;13.27;;;7.53;;
8895;SDS011;4484;48.928;10.066;2023-01-25T04:37:34;12.53;;;6.97;;
8895;SDS011;4484;48.928;10.066;2023-01-25T04:40:01;10.60;;;6.37;;
8895;SDS011;4484;48.928;10.066;2023-01-25T04:42:34;13.07;;;8.00;;
8895;SDS011;4484;48.928;10.066;2023-01-25T04:45:01;11.63;;;7.03;;
8895;SDS011;4484;48.928;10.066;2023-01-25T04:47:28;11.53;;;7.10;;
8895;SDS011;4484;48.928;10.066;2023-01-25T04:49:54;8.93;;;6.60;;
8895;SDS011;4484;48.928;10.066;2023-01-25T04:52:23;12.10;;;7.47;;
8895;SDS011;4484;48.928;10.066;2023-01-25T04:54:50;13.03;;;7.13;;
8895;SDS011;4484;48.928;10.066;2023-01-25T04:57:17;13.00;;;8.03;;
8895;SDS011;4484;48.928;10.066;2023-01-25T04:59:48;13.67;;;8.43;;
8895;SDS011;4484;48.928;10.066;2023-01-25T05:02:15;13.53;;;8.20;;
8895;SDS011;4484;48.928;10.066;2023-01-25T05:04:42;15.20;;;8.57;;
8895;SDS011;4484;48.928;10.066;2023-01-25T05:07:09;16.43;;;10.03;;
8895;SDS011;4484;48.928;10.066;2023-01-25T05:09:36;15.83;;;9.77;;
8895;SDS011;4484;48.928;10.066;2023-01-25T05:12:04;16.13;;;8.90;;
8895;SDS011;4484;48.928;10.066;2023-01-25T05:14:49;16.20;;;9.63;;
8895;SDS011;4484;48.928;10.066;2023-01-25T05:17:15;16.63;;;9.13;;
8895;SDS011;4484;48.928;10.066;2023-01-25T05:19:42;19.07;;;10.03;;
8895;SDS011;4484;48.928;10.066;2023-01-25T05:22:13;13.07;;;8.37;;
8895;SDS011;4484;48.928;10.066;2023-01-25T05:24:46;15.27;;;8.47;;
8895;SDS011;4484;48.928;10.066;2023-01-25T05:27:16;12.67;;;7.97;;
8895;SDS011;4484;48.928;10.066;2023-01-25T05:29:50;12.70;;;7.33;;
8895;SDS011;4484;48.928;10.066;2023-01-25T05:32:21;13.63;;;7.80;;
8895;SDS011;4484;48.928;10.066;2023-01-25T05:34:49;13.73;;;8.70;;
8895;SDS011;4484;48.928;10.066;2023-01-25T05:37:18;12.03;;;7.17;;
8895;SDS011;4484;48.928;10.066;2023-01-25T05:39:52;14.10;;;8.20;;
8895;SDS011;4484;48.928;10.066;2023-01-25T05:42:19;14.03;;;8.30;;
8895;SDS011;4484;48.928;10.066;2023-01-25T05:44:46;11.60;;;7.77;;
8895;SDS011;4484;48.928;10.066;2023-01-25T05:47:15;13.10;;;7.93;;
8895;SDS011;4484;48.928;10.066;2023-01-25T05:49:43;11.57;;;7.93;;
8895;SDS011;4484;48.928;10.066;2023-01-25T05:52:16;13.60;;;8.57;;
8895;SDS011;4484;48.928;10.066;2023-01-25T05:54:43;15.90;;;8.27;;
8895;SDS011;4484;48.928;10.066;2023-01-25T05:57:12;14.40;;;8.50;;
8895;SDS011;4484;48.928;10.066;2023-01-25T05:59:40;13.60;;;8.77;;
8895;SDS011;4484;48.928;10.066;2023-01-25T06:02:09;14.07;;;8.60;;
8895;SDS011;4484;48.928;10.066;2023-01-25T06:04:37;15.60;;;9.20;;
8895;SDS011;4484;48.928;10.066;2023-01-25T06:07:04;15.63;;;9.10;;
8895;SDS011;4484;48.928;10.066;2023-01-25T06:09:33;16.40;;;9.10;;
8895;SDS011;4484;48.928;10.066;2023-01-25T06:11:59;16.33;;;9.37;;
8895;SDS011;4484;48.928;10.066;2023-01-25T06:14:27;15.80;;;9.33;;
8895;SDS011;4484;48.928;10.066;2023-01-25T06:16:54;15.53;;;9.10;;
8895;SDS011;4484;48.928;10.066;2023-01-25T06:19:39;15.03;;;8.97;;
8895;SDS011;4484;48.928;10.066;2023-01-25T06:22:28;16.87;;;9.73;;
8895;SDS011;4484;48.928;10.066;2023-01-25T06:24:54;15.97;;;9.33;;
8895;SDS011;4484;48.928;10.066;2023-01-25T06:27:21;17.60;;;10.53;;
8895;SDS011;4484;48.928;10.066;2023-01-25T06:29:48;17.27;;;10.43;;
8895;SDS011;4484;48.928;10.066;2023-01-25T06:32:15;21.20;;;10.60;;
8895;SDS011;4484;48.928;10.066;2023-01-25T06:34:42;20.57;;;10.87;;
8895;SDS011;4484;48.928;10.066;2023-01-25T06:37:17;17.40;;;10.00;;
8895;SDS011;4484;48.928;10.066;2023-01-25T06:39:45;18.33;;;10.23;;
8895;SDS011;4484;48.928;10.066;2023-01-25T06:42:12;14.27;;;9.23;;
8895;SDS011;4484;48.928;10.066;2023-01-25T06:44:38;19.53;;;10.47;;
8895;SDS011;4484;48.928;10.066;2023-01-25T06:47:07;17.23;;;9.93;;
8895;SDS011;4484;48.928;10.066;2023-01-25T06:49:34;18.23;;;10.60;;
8895;SDS011;4484;48.928;10.066;2023-01-25T06:52:01;22.80;;;14.53;;
8895;SDS011;4484;48.928;10.066;2023-01-25T06:54:28;20.27;;;12.23;;
8895;SDS011;4484;48.928;10.066;2023-01-25T06:56:55;20.53;;;10.83;;
8895;SDS011;4484;48.928;10.066;2023-01-25T06:59:22;15.73;;;9.93;;
8895;SDS011;4484;48.928;10.066;2023-01-25T07:01:49;19.83;;;10.70;;
8895;SDS011;4484;48.928;10.066;2023-01-25T07:04:15;15.57;;;9.97;;
8895;SDS011;4484;48.928;10.066;2023-01-25T07:06:42;16.90;;;10.27;;
8895;SDS011;4484;48.928;10.066;2023-01-25T07:09:11;20.27;;;11.40;;
8895;SDS011;4484;48.928;10.066;2023-01-25T07:11:39;19.93;;;11.43;;
8895;SDS011;4484;48.928;10.066;2023-01-25T07:14:06;20.60;;;11.03;;
8895;SDS011;4484;48.928;10.066;2023-01-25T07:16:33;15.87;;;9.80;;
8895;SDS011;4484;48.928;10.066;2023-01-25T07:19:04;20.83;;;12.17;;
8895;SDS011;4484;48.928;10.066;2023-01-25T07:21:32;21.87;;;12.30;;
8895;SDS011;4484;48.928;10.066;2023-01-25T07:24:00;19.80;;;10.53;;
8895;SDS011;4484;48.928;10.066;2023-01-25T07:26:29;21.27;;;12.00;;
8895;SDS011;4484;48.928;10.066;2023-01-25T07:28:57;22.77;;;11.80;;
8895;SDS011;4484;48.928;10.066;2023-01-25T07:31:25;20.23;;;12.40;;
8895;SDS011;4484;48.928;10.066;2023-01-25T07:33:53;23.27;;;12.67;;
8895;SDS011;4484;48.928;10.066;2023-01-25T07:36:21;20.70;;;12.87;;
8895;SDS011;4484;48.928;10.066;2023-01-25T07:38:48;18.90;;;12.27;;
8895;SDS011;4484;48.928;10.066;2023-01-25T07:41:18;21.17;;;12.13;;
8895;SDS011;4484;48.928;10.066;2023-01-25T07:43:45;18.50;;;11.80;;
8895;SDS011;4484;48.928;10.066;2023-01-25T07:46:19;21.73;;;12.00;;
8895;SDS011;4484;48.928;10.066;2023-01-25T07:48:47;18.00;;;12.33;;
8895;SDS011;4484;48.928;10.066;2023-01-25T07:51:15;21.27;;;11.43;;
8895;SDS011;4484;48.928;10.066;2023-01-25T07:53:51;17.87;;;11.20;;
8895;SDS011;4484;48.928;10.066;2023-01-25T07:56:20;18.30;;;11.70;;
8895;SDS011;4484;48.928;10.066;2023-01-25T07:58:48;19.03;;;11.93;;
8895;SDS011;4484;48.928;10.066;2023-01-25T08:01:18;20.57;;;12.83;;
8895;SDS011;4484;48.928;10.066;2023-01-25T08:03:46;20.37;;;11.60;;
8895;SDS011;4484;48.928;10.066;2023-01-25T08:06:13;22.07;;;11.67;;
8895;SDS011;4484;48.928;10.066;2023-01-25T08:08:45;22.10;;;13.03;;
8895;SDS011;4484;48.928;10.066;2023-01-25T08:11:15;19.57;;;13.00;;
8895;SDS011;4484;48.928;10.066;2023-01-25T08:13:45;23.07;;;13.20;;
8895;SDS011;4484;48.928;10.066;2023-01-25T08:16:15;21.70;;;12.77;;
8895;SDS011;4484;48.928;10.066;2023-01-25T08:18:46;21.87;;;12.90;;
8895;SDS011;4484;48.928;10.066;2023-01-25T08:21:14;22.17;;;13.70;;
8895;SDS011;4484;48.928;10.066;2023-01-25T08:23:41;21.10;;;12.23;;
8895;SDS011;4484;48.928;10.066;2023-01-25T08:26:09;22.77;;;13.07;;
8895;SDS011;4484;48.928;10.066;2023-01-25T08:28:37;21.97;;;13.87;;
8895;SDS011;4484;48.928;10.066;2023-01-25T08:31:05;24.83;;;14.53;;
8895;SDS011;4484;48.928;10.066;2023-01-25T08:33:37;22.70;;;13.07;;
8895;SDS011;4484;48.928;10.066;2023-01-25T08:36:05;23.60;;;12.80;;
8895;SDS011;4484;48.928;10.066;2023-01-25T08:38:34;23.03;;;14.07;;
8895;SDS011;4484;48.928;10.066;2023-01-25T08:43:35;25.47;;;15.03;;
8895;SDS011;4484;48.928;10.066;2023-01-25T08:46:03;29.20;;;15.10;;
8895;SDS011;4484;48.928;10.066;2023-01-25T08:48:30;26.87;;;15.47;;
8895;SDS011;4484;48.928;10.066;2023-01-25T08:50:57;33.00;;;18.70;;
8895;SDS011;4484;48.928;10.066;2023-01-25T08:53:28;28.33;;;16.50;;
8895;SDS011;4484;48.928;10.066;2023-01-25T08:56:01;22.70;;;14.57;;
8895;SDS011;4484;48.928;10.066;2023-01-25T08:58:29;30.83;;;14.77;;
8895;SDS011;4484;48.928;10.066;2023-01-25T09:01:03;28.63;;;17.37;;
8895;SDS011;4484;48.928;10.066;2023-01-25T09:03:36;29.97;;;16.03;;
8895;SDS011;4484;48.928;10.066;2023-01-25T09:06:06;32.10;;;16.63;;
8895;SDS011;4484;48.928;10.066;2023-01-25T09:08:33;25.00;;;14.23;;
8895;SDS011;4484;48.928;10.066;2023-01-25T09:11:05;25.73;;;14.60;;
8895;SDS011;4484;48.928;10.066;2023-01-25T09:13:33;27.30;;;13.87;;
8895;SDS011;4484;48.928;10.066;2023-01-25T09:16:01;27.37;;;13.93;;
8895;SDS011;4484;48.928;10.066;2023-01-25T09:18:33;22.93;;;14.07;;
8895;SDS011;4484;48.928;10.066;2023-01-25T09:21:05;22.57;;;13.10;;
8895;SDS011;4484;48.928;10.066;2023-01-25T09:23:33;27.73;;;14.87;;
8895;SDS011;4484;48.928;10.066;2023-01-25T09:26:21;23.63;;;14.57;;
8895;SDS011;4484;48.928;10.066;2023-01-25T09:28:48;25.50;;;14.53;;
8895;SDS011;4484;48.928;10.066;2023-01-25T09:31:17;28.83;;;14.50;;
8895;SDS011;4484;48.928;10.066;2023-01-25T09:34:12;26.87;;;13.87;;
8895;SDS011;4484;48.928;10.066;2023-01-25T09:36:40;29.57;;;15.23;;
8895;SDS011;4484;48.928;10.066;2023-01-25T09:39:07;24.80;;;13.77;;
8895;SDS011;4484;48.928;10.066;2023-01-25T09:56:00;24.70;;;13.57;;
8895;SDS011;4484;48.928;10.066;2023-01-25T09:58:44;27.00;;;14.17;;
8895;SDS011;4484;48.928;10.066;2023-01-25T10:04:24;26.47;;;13.37;;
8895;SDS011;4484;48.928;10.066;2023-01-25T10:06:56;29.17;;;14.93;;
8895;SDS011;4484;48.928;10.066;2023-01-25T10:09:38;24.97;;;13.73;;
8895;SDS011;4484;48.928;10.066;2023-01-25T10:12:18;28.53;;;14.50;;
8895;SDS011;4484;48.928;10.066;2023-01-25T10:14:50;28.17;;;13.43;;
8895;SDS011;4484;48.928;10.066;2023-01-25T10:20:34;27.93;;;14.07;;
8895;SDS011;4484;48.928;10.066;2023-01-25T10:28:59;26.23;;;13.00;;
8895;SDS011;4484;48.928;10.066;2023-01-25T10:37:21;22.53;;;12.40;;
8895;SDS011;4484;48.928;10.066;2023-01-25T10:40:03;30.17;;;16.10;;
8895;SDS011;4484;48.928;10.066;2023-01-25T10:42:37;26.70;;;14.40;;
8895;SDS011;4484;48.928;10.066;2023-01-25T10:45:13;22.90;;;13.90;;
8895;SDS011;4484;48.928;10.066;2023-01-25T10:55:59;20.30;;;12.53;;
8895;SDS011;4484;48.928;10.066;2023-01-25T11:01:04;27.83;;;14.63;;
8895;SDS011;4484;48.928;10.066;2023-01-25T11:03:37;28.87;;;14.87;;
8895;SDS011;4484;48.928;10.066;2023-01-25T11:06:06;28.40;;;14.70;;
8895;SDS011;4484;48.928;10.066;2023-01-25T11:08:35;28.97;;;15.67;;
8895;SDS011;4484;48.928;10.066;2023-01-25T11:11:20;29.13;;;14.80;;
8895;SDS011;4484;48.928;10.066;2023-01-25T11:13:56;27.30;;;13.93;;
8895;SDS011;4484;48.928;10.066;2023-01-25T11:16:30;27.57;;;14.53;;
8895;SDS011;4484;48.928;10.066;2023-01-25T11:19:02;23.57;;;13.40;;
8895;SDS011;4484;48.928;10.066;2023-01-25T11:22:03;21.70;;;12.77;;
8895;SDS011;4484;48.928;10.066;2023-01-25T11:24:45;23.47;;;12.33;;
8895;SDS011;4484;48.928;10.066;2023-01-25T11:32:50;22.30;;;11.73;;
8895;SDS011;4484;48.928;10.066;2023-01-25T11:35:20;22.67;;;12.17;;
8895;SDS011;4484;48.928;10.066;2023-01-25T11:40:38;21.87;;;13.13;;
8895;SDS011;4484;48.928;10.066;2023-01-25T11:43:20;19.67;;;11.43;;
8895;SDS011;4484;48.928;10.066;2023-01-25T11:48:39;27.27;;;13.67;;
8895;SDS011;4484;48.928;10.066;2023-01-25T11:51:24;22.43;;;12.10;;
8895;SDS011;4484;48.928;10.066;2023-01-25T11:54:33;19.20;;;11.53;;
8895;SDS011;4484;48.928;10.066;2023-01-25T12:00:03;24.30;;;13.70;;
8895;SDS011;4484;48.928;10.066;2023-01-25T12:14:04;23.53;;;12.77;;
8895;SDS011;4484;48.928;10.066;2023-01-25T12:16:59;27.70;;;14.20;;
8895;SDS011;4484;48.928;10.066;2023-01-25T12:22:28;20.33;;;12.03;;
8895;SDS011;4484;48.928;10.066;2023-01-25T12:28:26;21.87;;;12.70;;
8895;SDS011;4484;48.928;10.066;2023-01-25T12:31:01;20.67;;;12.20;;
8895;SDS011;4484;48.928;10.066;2023-01-25T12:36:17;19.57;;;12.03;;
8895;SDS011;4484;48.928;10.066;2023-01-25T12:39:02;23.37;;;12.70;;
8895;SDS011;4484;48.928;10.066;2023-01-25T12:41:36;26.73;;;13.33;;
8895;SDS011;4484;48.928;10.066;2023-01-25T12:49:31;23.57;;;12.70;;
8895;SDS011;4484;48.928;10.066;2023-01-25T12:52:06;25.93;;;12.50;;
8895;SDS011;4484;48.928;10.066;2023-01-25T12:54:41;23.60;;;12.40;;
8895;SDS011;4484;48.928;10.066;2023-01-25T12:57:22;24.03;;;12.60;;
8895;SDS011;4484;48.928;10.066;2023-01-25T13:00:30;28.63;;;12.83;;
8895;SDS011;4484;48.928;10.066;2023-01-25T13:05:46;29.47;;;13.23;;
8895;SDS011;4484;48.928;10.066;2023-01-25T13:08:31;23.20;;;12.10;;
8895;SDS011;4484;48.928;10.066;2023-01-25T13:11:26;17.70;;;10.47;;
8895;SDS011;4484;48.928;10.066;2023-01-25T13:16:48;21.67;;;10.47;;
8895;SDS011;4484;48.928;10.066;2023-01-25T13:22:01;22.17;;;10.63;;
8895;SDS011;4484;48.928;10.066;2023-01-25T13:24:32;21.57;;;11.17;;
8895;SDS011;4484;48.928;10.066;2023-01-25T13:32:04;17.43;;;10.33;;
8895;SDS011;4484;48.928;10.066;2023-01-25T13:39:43;17.13;;;9.83;;
8895;SDS011;4484;48.928;10.066;2023-01-25T13:42:24;25.20;;;12.63;;
8895;SDS011;4484;48.928;10.066;2023-01-25T13:44:54;20.20;;;11.73;;
8895;SDS011;4484;48.928;10.066;2023-01-25T13:47:33;22.93;;;12.17;;
8895;SDS011;4484;48.928;10.066;2023-01-25T13:50:11;22.63;;;12.27;;
8895;SDS011;4484;48.928;10.066;2023-01-25T13:55:22;18.63;;;11.00;;
8895;SDS011;4484;48.928;10.066;2023-01-25T13:57:49;17.90;;;10.63;;
8895;SDS011;4484;48.928;10.066;2023-01-25T14:00:17;23.93;;;11.60;;
8895;SDS011;4484;48.928;10.066;2023-01-25T14:02:45;21.80;;;12.20;;
8895;SDS011;4484;48.928;10.066;2023-01-25T14:05:16;22.67;;;13.10;;
8895;SDS011;4484;48.928;10.066;2023-01-25T14:07:45;23.60;;;12.73;;
8895;SDS011;4484;48.928;10.066;2023-01-25T14:10:15;21.03;;;11.63;;
8895;SDS011;4484;48.928;10.066;2023-01-25T14:12:49;21.93;;;12.03;;
8895;SDS011;4484;48.928;10.066;2023-01-25T14:18:03;24.80;;;12.37;;
8895;SDS011;4484;48.928;10.066;2023-01-25T14:20:35;21.03;;;11.87;;
8895;SDS011;4484;48.928;10.066;2023-01-25T14:23:02;21.10;;;11.90;;
8895;SDS011;4484;48.928;10.066;2023-01-25T14:25:31;27.23;;;14.20;;
8895;SDS011;4484;48.928;10.066;2023-01-25T14:27:58;31.60;;;15.47;;
8895;SDS011;4484;48.928;10.066;2023-01-25T14:30:28;31.63;;;15.53;;
8895;SDS011;4484;48.928;10.066;2023-01-25T14:32:58;33.67;;;18.13;;
8895;SDS011;4484;48.928;10.066;2023-01-25T14:40:51;32.43;;;16.00;;
8895;SDS011;4484;48.928;10.066;2023-01-25T14:43:23;28.83;;;14.83;;
8895;SDS011;4484;48.928;10.066;2023-01-25T14:45:51;26.13;;;14.50;;
8895;SDS011;4484;48.928;10.066;2023-01-25T14:48:31;28.37;;;15.93;;
8895;SDS011;4484;48.928;10.066;2023-01-25T14:51:16;26.20;;;14.63;;
8895;SDS011;4484;48.928;10.066;2023-01-25T14:53:45;20.73;;;12.43;;
8895;SDS011;4484;48.928;10.066;2023-01-25T14:59:03;26.57;;;13.40;;
8895;SDS011;4484;48.928;10.066;2023-01-25T15:01:33;27.87;;;14.53;;
8895;SDS011;4484;48.928;10.066;2023-01-25T15:04:03;28.17;;;14.97;;
8895;SDS011;4484;48.928;10.066;2023-01-25T15:06:43;28.53;;;15.33;;
8895;SDS011;4484;48.928;10.066;2023-01-25T15:09:28;25.30;;;14.73;;
8895;SDS011;4484;48.928;10.066;2023-01-25T15:11:58;27.67;;;14.77;;
8895;SDS011;4484;48.928;10.066;2023-01-25T15:14:30;24.30;;;12.83;;
8895;SDS011;4484;48.928;10.066;2023-01-25T15:16:58;27.90;;;14.23;;
8895;SDS011;4484;48.928;10.066;2023-01-25T15:19:26;26.00;;;14.23;;
8895;SDS011;4484;48.928;10.066;2023-01-25T15:21:57;26.10;;;13.87;;
8895;SDS011;4484;48.928;10.066;2023-01-25T15:24:25;26.27;;;13.40;;
8895;SDS011;4484;48.928;10.066;2023-01-25T15:26:53;28.67;;;14.63;;
8895;SDS011;4484;48.928;10.066;2023-01-25T15:29:22;27.60;;;14.93;;
8895;SDS011;4484;48.928;10.066;2023-01-25T15:31:52;23.20;;;13.10;;
8895;SDS011;4484;48.928;10.066;2023-01-25T15:34:25;27.47;;;14.03;;
8895;SDS011;4484;48.928;10.066;2023-01-25T15:36:55;28.43;;;14.80;;
8895;SDS011;4484;48.928;10.066;2023-01-25T15:39:22;26.90;;;15.03;;
8895;SDS011;4484;48.928;10.066;2023-01-25T15:41:49;28.90;;;14.47;;
8895;SDS011;4484;48.928;10.066;2023-01-25T15:44:15;21.90;;;13.40;;
8895;SDS011;4484;48.928;10.066;2023-01-25T15:46:45;29.60;;;14.43;;
8895;SDS011;4484;48.928;10.066;2023-01-25T15:49:24;22.77;;;11.77;;
8895;SDS011;4484;48.928;10.066;2023-01-25T15:51:52;22.57;;;12.07;;
8895;SDS011;4484;48.928;10.066;2023-01-25T15:54:22;23.73;;;13.23;;
8895;SDS011;4484;48.928;10.066;2023-01-25T15:56:50;24.67;;;12.20;;
8895;SDS011;4484;48.928;10.066;2023-01-25T15:59:21;27.73;;;13.57;;
8895;SDS011;4484;48.928;10.066;2023-01-25T16:01:48;28.73;;;14.73;;
8895;SDS011;4484;48.928;10.066;2023-01-25T16:04:15;27.10;;;13.57;;
8895;SDS011;4484;48.928;10.066;2023-01-25T16:09:14;24.60;;;13.47;;
8895;SDS011;4484;48.928;10.066;2023-01-25T16:11:44;25.97;;;13.03;;
8895;SDS011;4484;48.928;10.066;2023-01-25T16:14:12;24.47;;;12.70;;
8895;SDS011;4484;48.928;10.066;2023-01-25T16:16:42;23.60;;;13.23;;
8895;SDS011;4484;48.928;10.066;2023-01-25T16:19:13;29.20;;;13.77;;
8895;SDS011;4484;48.928;10.066;2023-01-25T16:21:41;25.40;;;13.93;;
8895;SDS011;4484;48.928;10.066;2023-01-25T16:24:08;30.23;;;15.00;;
8895;SDS011;4484;48.928;10.066;2023-01-25T16:26:36;25.27;;;12.50;;
8895;SDS011;4484;48.928;10.066;2023-01-25T16:29:09;28.40;;;14.47;;
8895;SDS011;4484;48.928;10.066;2023-01-25T16:31:36;27.57;;;14.83;;
8895;SDS011;4484;48.928;10.066;2023-01-25T16:34:03;19.43;;;11.30;;
8895;SDS011;4484;48.928;10.066;2023-01-25T16:36:30;23.80;;;11.30;;
8895;SDS011;4484;48.928;10.066;2023-01-25T16:39:05;19.93;;;10.80;;
8895;SDS011;4484;48.928;10.066;2023-01-25T16:41:35;21.27;;;11.67;;
8895;SDS011;4484;48.928;10.066;2023-01-25T16:44:02;19.83;;;11.27;;
8895;SDS011;4484;48.928;10.066;2023-01-25T16:46:28;22.67;;;10.90;;
8895;SDS011;4484;48.928;10.066;2023-01-25T16:48:56;22.40;;;11.50;;
8895;SDS011;4484;48.928;10.066;2023-01-25T16:51:25;19.37;;;10.67;;
8895;SDS011;4484;48.928;10.066;2023-01-25T16:53:54;18.13;;;10.23;;
8895;SDS011;4484;48.928;10.066;2023-01-25T16:56:26;21.17;;;11.47;;
8895;SDS011;4484;48.928;10.066;2023-01-25T16:58:56;21.00;;;9.97;;
8895;SDS011;4484;48.928;10.066;2023-01-25T17:01:25;20.87;;;10.83;;
8895;SDS011;4484;48.928;10.066;2023-01-25T17:03:53;22.63;;;13.10;;
8895;SDS011;4484;48.928;10.066;2023-01-25T17:06:26;20.03;;;10.73;;
8895;SDS011;4484;48.928;10.066;2023-01-25T17:08:55;20.30;;;10.80;;